Latest Weather Observations for Lucas Heights (ANSTO)

IDN60901

Issued at 10:51 am EST Wednesday 24 July 2024 (issued every 10 minutes, with the page automatically refreshed every 10 minutes)

About weather observations | Map of Sydney area stations | Latest observations for Sydney area | Other Formats
Station Details ID: 066023 Name: LUCAS HEIGHTS (ANSTO) Lat: -34.05 Lon: 150.98 Height: 140.0 m
Data from the previous 72 hours. | See also: Recent months for locations in New South Wales
Date/Time
EST
Temp
°C
App
Temp
°C
Dew
Point
°C
Rel
Hum
%
Delta-T
°C
Wind Press
QNH
hPa
Press
MSL
hPa
Rain since
9am
mm
Dir  Spd
km/h
Gust
km/h
Spd
kts
Gust
kts
24/10:30am 11.9 9.2 5.8 66 2.9 W 9 11 5 6 1023.8 - 0.0
24/10:15am 11.5 9.3 6.0 69 2.6 W 7 11 4 6 1024.0 - 0.0
24/10:00am 10.9 8.6 5.5 69 2.5 W 7 13 4 7 1024.2 - 0.0
24/09:45am 10.4 7.7 5.4 71 2.3 W 9 13 5 7 1024.3 - 0.0
24/09:30am 10.0 7.2 5.3 72 2.2 W 9 13 5 7 1024.3 - 0.0
24/09:15am 9.7 6.5 5.1 73 2.1 W 11 13 6 7 1024.4 - 0.0
24/09:00am 8.9 6.0 4.9 76 1.8 W 9 13 5 7 1024.5 - 0.0
24/08:45am 8.4 5.1 4.4 76 1.8 W 11 13 6 7 1024.5 - 0.0
24/08:30am 8.6 6.1 4.5 75 1.8 WNW 7 11 4 6 1024.4 - 0.0
24/08:15am 8.9 5.6 4.4 73 2.0 W 11 13 6 7 1024.4 - 0.0
24/08:00am 8.9 5.2 4.3 73 2.0 W 13 15 7 8 1024.5 - 0.0
24/07:45am 8.8 4.7 4.3 73 2.0 W 15 17 8 9 1024.5 - 0.0
24/07:30am 8.6 4.5 4.1 73 2.0 W 15 17 8 9 1024.6 - 0.0
24/07:15am 8.7 4.2 4.1 73 2.0 W 17 20 9 11 1024.6 - 0.0
24/07:00am 8.3 3.8 4.2 75 1.8 W 17 17 9 9 1024.4 - 0.0
24/06:45am 8.1 4.0 4.1 76 1.8 W 15 17 8 9 1024.4 - 0.0
24/06:30am 8.0 3.8 3.8 75 1.8 W 15 17 8 9 1024.2 - 0.0
24/06:15am 8.9 4.8 4.2 72 2.1 W 15 17 8 9 1024.2 - 0.0
24/06:00am 8.9 4.8 4.3 73 2.0 W 15 17 8 9 1024.1 - 0.0
24/05:45am 9.1 4.6 4.3 72 2.1 WSW 17 17 9 9 1024.0 - 0.0
24/05:30am 9.2 4.7 4.4 72 2.1 WSW 17 17 9 9 1024.1 - 0.0
24/05:15am 9.2 4.8 4.5 72 2.1 WSW 17 19 9 10 1024.1 - 0.0
24/05:00am 9.2 4.4 4.6 73 2.1 WSW 19 20 10 11 1024.2 - 0.0
24/04:45am 8.7 3.9 4.5 75 1.9 WSW 19 20 10 11 1024.1 - 0.0
24/04:30am 8.7 3.9 4.4 74 1.9 SW 19 20 10 11 1024.1 - 0.0
24/04:15am 9.2 4.2 4.5 72 2.1 SW 20 22 11 12 1024.1 - 0.0
24/04:00am 9.3 3.6 4.8 73 2.0 SW 24 26 13 14 1024.2 - 0.0
24/03:45am 9.4 4.1 4.9 73 2.0 SW 22 26 12 14 1024.2 - 0.0
24/03:30am 9.2 4.5 5.3 76 1.8 SW 19 22 10 12 1024.2 - 0.0
24/03:15am 7.6 3.6 4.9 83 1.2 SW 15 19 8 10 1024.2 - 0.0
24/03:00am 7.0 3.7 4.7 85 1.0 SW 11 15 6 8 1024.2 - 0.0
24/02:45am 6.6 3.3 4.4 86 1.0 SSW 11 13 6 7 1024.3 - 0.0
24/02:30am 6.8 3.1 4.7 86 0.9 SW 13 17 7 9 1024.3 - 0.0
24/02:15am 6.7 3.1 5.0 89 0.8 SW 13 15 7 8 1024.3 - 0.0
24/02:00am 6.3 1.9 4.8 90 0.7 SW 17 22 9 12 1024.5 - 0.0
24/01:45am 6.3 1.9 4.8 90 0.7 SSW 17 20 9 11 1024.6 - 0.0
24/01:30am 6.1 1.3 4.7 91 0.6 SSW 19 22 10 12 1024.6 - 0.0
24/01:15am 6.0 1.6 4.7 91 0.6 SSW 17 20 9 11 1024.7 - 0.0
24/01:00am 5.8 1.4 4.5 91 0.6 SSW 17 20 9 11 1024.8 - 0.0
24/12:45am 5.7 1.2 4.3 91 0.6 SSW 17 20 9 11 1025.0 - 0.0
24/12:30am 5.9 1.5 4.5 91 0.6 SSW 17 17 9 9 1025.0 - 0.0
24/12:15am 6.0 1.6 4.5 90 0.7 SSW 17 19 9 10 1025.1 - 0.0
24/12:00am 6.3 2.3 4.8 90 0.7 SW 15 17 8 9 1025.2 - 0.0
 
Date/Time
EST
Temp
°C
App
Temp
°C
Dew
Point
°C
Rel
Hum
%
Delta-T
°C
Wind Press
QNH
hPa
Press
MSL
hPa
Rain since
9am
mm
Dir  Spd
km/h
Gust
km/h
Spd
kts
Gust
kts
23/11:45pm 6.4 2.8 4.9 90 0.7 SW 13 15 7 8 1025.2 - 0.0
23/11:30pm 6.5 3.6 4.9 89 0.7 SSW 9 13 5 7 1025.2 - 0.0
23/11:15pm 6.6 3.8 5.0 89 0.7 SSW 9 11 5 6 1025.3 - 0.0
23/11:00pm 6.6 4.1 4.9 89 0.7 SW 7 11 4 6 1025.3 - 0.0
23/10:45pm 7.0 4.6 5.1 88 0.8 SW 7 9 4 5 1025.3 - 0.0
23/10:30pm 7.2 5.0 5.3 88 0.8 SW 6 9 3 5 1025.5 - 0.0
23/10:15pm 7.3 5.5 5.3 87 0.9 WNW 4 6 2 3 1025.5 - 0.0
23/10:00pm 7.6 5.8 5.4 86 1.0 NW 4 6 2 3 1025.5 - 0.0
23/09:45pm 8.0 6.2 5.5 84 1.1 NNW 4 7 2 4 1025.5 - 0.0
23/09:30pm 8.0 6.2 5.5 84 1.1 NNW 4 7 2 4 1025.6 - 0.0
23/09:15pm 8.3 6.2 5.6 83 1.2 WNW 6 7 3 4 1025.5 - 0.0
23/09:00pm 8.6 6.5 5.6 81 1.4 NW 6 7 3 4 1025.5 - 0.0
23/08:45pm 9.1 6.8 5.8 80 1.5 NNW 7 7 4 4 1025.6 - 0.0
23/08:30pm 9.5 7.4 5.9 78 1.7 N 6 7 3 4 1025.7 - 0.0
23/08:15pm 9.6 7.3 5.8 77 1.8 N 7 11 4 6 1025.6 - 0.0
23/08:00pm 9.8 7.5 5.7 75 1.9 N 7 9 4 5 1025.5 - 0.0
23/07:45pm 10.6 8.3 5.9 73 2.2 N 7 9 4 5 1025.5 - 0.0
23/07:30pm 11.2 9.0 6.0 70 2.4 N 7 11 4 6 1025.4 - 0.0
23/07:15pm 11.7 9.1 5.9 67 2.7 NNE 9 11 5 6 1025.3 - 0.0
23/07:00pm 12.1 9.5 6.0 66 2.9 N 9 13 5 7 1025.3 - 0.0
23/06:45pm 12.3 9.3 5.9 65 3.0 NNE 11 13 6 7 1025.2 - 0.0
23/06:30pm 12.3 10.0 5.8 64 3.1 N 7 13 4 7 1025.2 - 0.0
23/06:15pm 12.2 8.7 5.6 64 3.1 NNW 13 15 7 8 1025.2 - 0.0
23/06:00pm 12.6 9.5 5.6 62 3.3 NW 11 13 6 7 1025.1 - 0.0
23/05:45pm 13.1 10.1 5.8 61 3.5 NNW 11 13 6 7 1024.9 - 0.0
23/05:30pm 13.5 10.9 6.0 60 3.6 NNW 9 11 5 6 1024.7 - 0.0
23/05:15pm 14.2 12.0 6.2 58 3.9 N 7 11 4 6 1024.7 - 0.0
23/05:00pm 15.2 12.9 5.9 54 4.5 N 7 11 4 6 1024.6 - 0.0
23/04:45pm 16.1 13.7 5.4 49 5.1 N 7 11 4 6 1024.5 - 0.0
23/04:30pm 16.8 14.4 5.4 47 5.5 N 7 11 4 6 1024.4 - 0.0
23/04:15pm 17.2 14.8 5.2 45 5.8 N 7 11 4 6 1024.4 - 0.0
23/04:00pm 17.5 15.1 5.2 44 6.0 NNW 7 11 4 6 1024.4 - 0.0
23/03:45pm 17.5 14.6 4.8 43 6.1 NNW 9 15 5 8 1024.3 - 0.0
23/03:30pm 17.8 14.9 4.8 42 6.3 NW 9 15 5 8 1024.2 - 0.0
23/03:15pm 17.8 15.4 5.1 43 6.2 NNW 7 17 4 9 1024.3 - 0.0
23/03:00pm 17.8 15.4 5.2 43 6.1 NNW 7 13 4 7 1024.3 - 0.0
23/02:45pm 17.6 14.9 5.5 45 5.9 NNW 9 17 5 9 1024.4 - 0.0
23/02:30pm 17.4 14.7 5.4 45 5.8 WNW 9 19 5 10 1024.5 - 0.0
23/02:15pm 17.3 14.1 5.3 45 5.8 NW 11 15 6 8 1024.6 - 0.0
23/02:00pm 17.3 14.6 5.6 46 5.7 NW 9 17 5 9 1024.6 - 0.0
23/01:45pm 17.4 14.7 5.5 45 5.8 W 9 15 5 8 1024.8 - 0.0
23/01:30pm 17.0 14.3 5.5 46 5.6 WNW 9 15 5 8 1025.0 - 0.0
23/01:15pm 16.9 14.5 5.4 46 5.6 W 7 15 4 8 1025.2 - 0.0
23/01:00pm 16.5 13.8 5.5 48 5.3 W 9 15 5 8 1025.4 - 0.0
23/12:45pm 16.4 13.3 5.6 48 5.2 W 11 19 6 10 1025.6 - 0.0
23/12:30pm 16.1 12.7 5.8 50 5.0 W 13 20 7 11 1025.9 - 0.0
23/12:15pm 16.3 13.3 5.8 49 5.1 WSW 11 15 6 8 1026.2 - 0.0
23/12:00pm 15.9 12.9 5.9 51 4.9 W 11 17 6 9 1026.4 - 0.0
23/11:45am 15.4 12.0 5.8 52 4.6 W 13 20 7 11 1026.6 - 0.0
23/11:30am 15.3 11.9 5.9 53 4.5 W 13 19 7 10 1026.8 - 0.0
23/11:15am 14.8 11.4 5.8 55 4.3 W 13 17 7 9 1027.0 - 0.0
23/11:00am 14.6 11.2 5.8 55 4.2 W 13 20 7 11 1027.2 - 0.0
23/10:45am 14.4 11.0 5.9 56 4.1 W 13 17 7 9 1027.3 - 0.0
23/10:30am 14.0 10.6 5.9 58 3.9 W 13 22 7 12 1027.4 - 0.0
23/10:15am 13.6 9.8 5.7 59 3.8 W 15 22 8 12 1027.5 - 0.0
23/10:00am 13.3 9.8 5.6 59 3.6 W 13 22 7 12 1027.6 - 0.0
23/09:45am 12.9 9.0 5.5 60 3.5 W 15 22 8 12 1027.5 - 0.0
23/09:30am 12.6 8.7 5.4 61 3.4 WSW 15 19 8 10 1027.4 - 0.0
23/09:15am 12.2 8.7 5.3 62 3.2 WSW 13 19 7 10 1027.4 - 0.0
23/09:00am 11.8 7.8 5.1 63 3.1 WSW 15 22 8 12 1027.5 - 0.0
23/08:45am 11.3 7.3 5.0 65 2.9 WSW 15 20 8 11 1027.3 - 0.0
23/08:30am 10.9 6.5 4.8 66 2.8 WSW 17 22 9 12 1027.2 - 0.0
23/08:15am 10.5 5.7 4.7 67 2.6 WSW 19 22 10 12 1027.1 - 0.0
23/08:00am 9.8 5.4 4.5 69 2.4 WSW 17 20 9 11 1027.0 - 0.0
23/07:45am 9.3 4.4 4.2 70 2.3 WSW 19 22 10 12 1027.0 - 0.0
23/07:30am 8.9 3.8 4.1 72 2.1 WSW 20 22 11 12 1026.9 - 0.0
23/07:15am 8.6 3.5 4.0 73 2.0 WSW 20 22 11 12 1026.8 - 0.0
23/07:00am 8.4 3.5 4.0 74 1.9 WSW 19 20 10 11 1026.7 - 0.0
23/06:45am 8.3 3.4 4.0 74 1.9 SW 19 20 10 11 1026.6 - 0.0
23/06:30am 8.3 3.4 4.0 74 1.9 SW 19 20 10 11 1026.4 - 0.0
23/06:15am 8.3 3.4 4.1 75 1.8 SW 19 20 10 11 1026.3 - 0.0
23/06:00am 8.2 3.7 4.0 75 1.8 SW 17 19 9 10 1026.1 - 0.0
23/05:45am 8.0 3.5 4.0 76 1.7 SW 17 17 9 9 1026.0 - 0.0
23/05:30am 7.8 3.6 3.8 76 1.7 SW 15 17 8 9 1025.8 - 0.0
23/05:15am 8.1 4.3 3.9 75 1.8 SW 13 15 7 8 1025.8 - 0.0
23/05:00am 7.9 3.7 3.6 74 1.9 SW 15 15 8 8 1025.8 - 0.0
23/04:45am 8.3 3.7 3.6 72 2.0 WSW 17 19 9 10 1025.7 - 0.0
23/04:30am 8.3 3.3 3.5 72 2.1 W 19 20 10 11 1025.7 - 0.0
23/04:15am 8.3 3.3 3.6 72 2.0 W 19 20 10 11 1025.7 - 0.0
23/04:00am 8.1 3.4 3.4 72 2.0 W 17 20 9 11 1025.8 - 0.0
23/03:45am 8.0 3.0 3.4 73 2.0 W 19 20 10 11 1025.8 - 0.0
23/03:30am 8.0 2.8 3.4 73 2.0 W 20 22 11 12 1025.8 - 0.0
23/03:15am 7.7 3.0 3.1 72 2.0 W 17 20 9 11 1025.8 - 0.0
23/03:00am 8.3 3.1 3.3 71 2.2 W 20 22 11 12 1025.8 - 0.0
23/02:45am 8.4 3.2 3.3 70 2.2 W 20 22 11 12 1025.9 - 0.0
23/02:30am 8.5 3.2 3.2 69 2.3 W 20 26 11 14 1026.0 - 0.0
23/02:15am 8.5 3.2 3.2 69 2.3 W 20 24 11 13 1026.0 - 0.0
23/02:00am 8.6 3.0 3.2 69 2.3 W 22 24 12 13 1026.1 - 0.0
23/01:45am 8.7 3.6 3.1 68 2.4 W 19 24 10 13 1026.1 - 0.0
23/01:30am 9.1 4.0 3.1 66 2.6 W 19 22 10 12 1026.1 - 0.0
23/01:15am 9.4 4.1 3.2 65 2.7 W 20 26 11 14 1026.1 - 0.0
23/01:00am 9.7 4.4 3.2 64 2.8 W 20 26 11 14 1026.2 - 0.0
23/12:45am 10.1 4.1 3.2 62 3.0 W 24 26 13 14 1026.3 - 0.0
23/12:30am 10.5 4.5 3.2 60 3.2 W 24 26 13 14 1026.3 - 0.0
23/12:15am 10.4 4.8 3.2 61 3.2 W 22 24 12 13 1026.4 - 0.0
23/12:00am 10.6 4.9 3.1 60 3.3 W 22 26 12 14 1026.5 - 0.0
 
Date/Time
EST
Temp
°C
App
Temp
°C
Dew
Point
°C
Rel
Hum
%
Delta-T
°C
Wind Press
QNH
hPa
Press
MSL
hPa
Rain since
9am
mm
Dir  Spd
km/h
Gust
km/h
Spd
kts
Gust
kts
22/11:45pm 10.8 5.2 3.2 59 3.3 W 22 24 12 13 1026.5 - 0.0
22/11:30pm 11.0 5.3 3.1 58 3.5 W 22 24 12 13 1026.6 - 0.0
22/11:15pm 11.3 5.6 3.1 57 3.6 W 22 26 12 14 1026.6 - 0.0
22/11:00pm 11.7 6.0 3.1 55 3.8 W 22 24 12 13 1026.5 - 0.0
22/10:45pm 12.1 6.8 3.1 54 4.0 W 20 22 11 12 1026.5 - 0.0
22/10:30pm 11.9 6.6 3.1 55 3.9 W 20 22 11 12 1026.5 - 0.0
22/10:15pm 11.7 6.4 3.0 55 3.8 W 20 22 11 12 1026.5 - 0.0
22/10:00pm 11.7 6.4 3.0 55 3.8 WSW 20 22 11 12 1026.5 - 0.0
22/09:45pm 11.8 6.5 3.0 55 3.9 WSW 20 22 11 12 1026.5 - 0.0
22/09:30pm 11.9 6.6 3.0 54 3.9 WSW 20 22 11 12 1026.4 - 0.0
22/09:15pm 12.2 6.9 3.0 53 4.1 WSW 20 24 11 13 1026.3 - 0.0
22/09:00pm 12.2 6.1 2.9 53 4.1 WSW 24 26 13 14 1026.3 - 0.0
22/08:45pm 12.4 6.7 2.7 51 4.3 WSW 22 26 12 14 1026.2 - 0.0
22/08:30pm 12.6 7.3 2.8 51 4.3 WSW 20 22 11 12 1026.2 - 0.0
22/08:15pm 12.5 6.8 2.8 51 4.3 WSW 22 26 12 14 1026.2 - 0.0
22/08:00pm 12.5 7.8 2.9 52 4.3 WSW 17 26 9 14 1026.1 - 0.0
22/07:45pm 12.7 8.4 3.1 52 4.3 WSW 15 17 8 9 1025.9 - 0.0
22/07:30pm 12.9 9.4 3.3 52 4.3 WSW 11 17 6 9 1025.8 - 0.0
22/07:15pm 12.9 9.0 3.5 53 4.2 W 13 15 7 8 1025.7 - 0.0
22/07:00pm 13.1 9.3 3.8 53 4.2 W 13 15 7 8 1025.6 - 0.0
22/06:45pm 13.0 9.2 3.9 54 4.1 W 13 15 7 8 1025.5 - 0.0
22/06:30pm 13.6 10.6 3.9 52 4.4 W 9 11 5 6 1025.3 - 0.0
22/06:15pm 14.3 10.8 3.7 49 4.9 WSW 11 13 6 7 1025.2 - 0.0
22/06:00pm 14.6 11.1 3.6 47 5.0 WSW 11 13 6 7 1025.0 - 0.0
22/05:45pm 14.6 10.8 3.7 48 5.0 W 13 15 7 8 1024.9 - 0.0
22/05:30pm 14.8 11.0 3.9 48 5.0 W 13 15 7 8 1024.8 - 0.0
22/05:15pm 15.3 11.5 4.1 47 5.2 W 13 17 7 9 1024.7 - 0.0
22/05:00pm 15.7 12.0 4.4 47 5.3 W 13 15 7 8 1024.5 - 0.0
22/04:45pm 16.1 12.7 4.0 44 5.7 WSW 11 17 6 9 1024.4 - 0.0
22/04:30pm 16.8 12.6 3.8 42 6.1 WSW 15 22 8 12 1024.3 - 0.0
22/04:15pm 17.0 12.9 4.3 43 6.0 WSW 15 22 8 12 1024.2 - 0.0
22/04:00pm 17.1 13.9 5.0 44 5.8 W 11 17 6 9 1024.2 - 0.0
22/03:45pm 17.1 13.5 5.0 44 5.8 WSW 13 20 7 11 1024.2 - 0.0
22/03:30pm 16.9 13.8 5.5 47 5.5 WSW 11 17 6 9 1024.2 - 0.0
22/03:15pm 16.5 13.4 5.5 48 5.3 WSW 11 17 6 9 1024.1 - 0.0
22/03:00pm 16.6 12.6 5.0 46 5.6 WSW 15 22 8 12 1024.1 - 0.0
22/02:45pm 17.1 12.8 5.1 45 5.8 WSW 17 24 9 13 1024.1 - 0.0
22/02:30pm 16.8 12.9 5.3 46 5.6 WSW 15 22 8 12 1024.1 - 0.0
22/02:15pm 17.4 13.4 5.1 44 5.9 WSW 15 24 8 13 1024.0 - 0.0
22/02:00pm 17.6 12.9 5.2 44 6.0 W 19 30 10 16 1024.1 - 0.0
22/01:45pm 17.2 12.6 5.4 45 5.7 W 19 28 10 15 1024.2 - 0.0
22/01:30pm 17.2 12.6 5.4 45 5.7 WSW 19 28 10 15 1024.2 - 0.0
22/01:15pm 17.1 13.3 5.8 47 5.5 W 15 26 8 14 1024.3 - 0.0
22/01:00pm 17.0 12.4 5.7 47 5.5 WSW 19 26 10 14 1024.4 - 0.0
22/12:45pm 16.7 13.0 6.3 50 5.1 W 15 30 8 16 1024.6 - 0.0
22/12:30pm 16.3 12.2 6.1 51 5.0 SW 17 30 9 16 1024.9 - 0.0
22/12:15pm 15.6 12.2 6.0 53 4.7 WSW 13 26 7 14 1025.1 - 0.0
22/12:00pm 15.3 12.7 6.1 54 4.5 WNW 9 17 5 9 1025.3 - 0.0
22/11:45am 15.0 12.0 5.8 54 4.4 W 11 20 6 11 1025.6 - 0.0
22/11:30am 14.6 11.1 5.5 54 4.3 W 13 20 7 11 1025.9 - 0.0
22/11:15am 14.4 11.3 5.4 54 4.3 W 11 19 6 10 1026.1 - 0.0
22/11:00am 14.2 11.1 5.5 56 4.1 W 11 19 6 10 1026.2 - 0.0
22/10:45am 13.8 10.6 5.1 55 4.1 W 11 15 6 8 1026.3 - 0.0
22/10:30am 13.4 9.8 5.0 57 3.9 W 13 17 7 9 1026.3 - 0.0
22/10:15am 12.8 9.5 4.7 58 3.7 W 11 19 6 10 1026.4 - 0.0
22/10:00am 12.2 8.9 4.3 58 3.6 W 11 15 6 8 1026.4 - 0.0
22/09:45am 12.0 9.0 4.3 59 3.5 W 9 13 5 7 1026.4 - 0.0
22/09:30am 11.3 8.3 3.9 60 3.3 W 9 13 5 7 1026.4 - 0.0
22/09:15am 10.6 7.1 3.7 62 3.1 W 11 15 6 8 1026.2 - 0.0
22/09:00am 9.9 6.4 3.5 64 2.8 W 11 17 6 9 1026.1 - 0.0
22/08:45am 9.3 5.3 3.0 65 2.7 W 13 17 7 9 1026.0 - 0.0
22/08:30am 9.0 4.7 3.0 66 2.6 W 15 20 8 11 1025.8 - 0.0
22/08:15am 8.6 4.6 2.7 66 2.5 W 13 17 7 9 1025.7 - 0.0
22/08:00am 8.4 4.0 2.5 66 2.5 W 15 20 8 11 1025.6 - 0.0
22/07:45am 8.1 3.3 2.5 68 2.4 W 17 20 9 11 1025.5 - 0.0
22/07:30am 7.6 2.8 2.4 69 2.2 W 17 20 9 11 1025.4 - 0.0
22/07:15am 7.2 2.3 2.3 71 2.0 W 17 20 9 11 1025.3 - 0.0
22/07:00am 7.2 2.3 2.1 70 2.1 W 17 19 9 10 1025.1 - 0.0
22/06:45am 7.5 2.6 2.2 69 2.2 W 17 20 9 11 1025.0 - 0.0
22/06:30am 7.1 2.2 2.3 71 2.0 W 17 20 9 11 1024.8 - 0.0
22/06:15am 6.9 2.4 2.4 73 1.9 W 15 19 8 10 1024.6 - 0.0
22/06:00am 7.6 3.6 3.0 72 2.0 W 13 15 7 8 1024.5 - 0.0
22/05:45am 8.2 4.3 3.4 72 2.1 W 13 15 7 8 1024.4 - 0.0
22/05:30am 8.4 4.9 3.4 71 2.2 WSW 11 13 6 7 1024.3 - 0.0
22/05:15am 8.8 4.6 3.6 70 2.3 SW 15 19 8 10 1024.0 - 0.0
22/05:00am 9.1 4.1 3.7 69 2.4 SW 19 22 10 12 1023.9 - 0.0
22/04:45am 9.0 4.0 3.8 70 2.3 SW 19 24 10 13 1023.9 - 0.0
22/04:30am 8.2 3.6 3.5 72 2.0 SW 17 22 9 12 1023.8 - 0.0
22/04:15am 8.2 4.7 3.3 71 2.1 SW 11 15 6 8 1023.6 - 0.0
22/04:00am 8.4 4.8 3.2 70 2.2 SW 11 15 6 8 1023.5 - 0.0
22/03:45am 8.8 4.9 3.3 68 2.4 WSW 13 15 7 8 1023.6 - 0.0
22/03:30am 8.6 4.7 3.4 70 2.2 WSW 13 20 7 11 1023.7 - 0.0
22/03:15am 8.4 4.1 3.2 70 2.2 SW 15 20 8 11 1023.7 - 0.0
22/03:00am 8.4 3.7 3.1 69 2.3 SW 17 20 9 11 1023.7 - 0.0
22/02:45am 8.5 3.8 3.0 68 2.4 SW 17 22 9 12 1023.7 - 0.0
22/02:30am 8.9 4.6 3.0 66 2.5 SW 15 17 8 9 1023.5 - 0.0
22/02:15am 9.0 4.7 3.1 66 2.5 SW 15 20 8 11 1023.5 - 0.0
22/02:00am 9.0 5.0 3.0 66 2.6 WSW 13 17 7 9 1023.4 - 0.0
22/01:45am 9.2 5.6 3.1 65 2.6 WSW 11 15 6 8 1023.3 - 0.0
22/01:30am 9.2 5.2 3.1 65 2.6 WSW 13 17 7 9 1023.3 - 0.0
22/01:15am 9.3 5.3 3.1 65 2.7 SW 13 20 7 11 1023.4 - 0.0
22/01:00am 9.4 5.1 3.0 64 2.8 SW 15 20 8 11 1023.4 - 0.0
22/12:45am 9.5 4.4 2.9 63 2.8 SW 19 26 10 14 1023.2 - 0.0
22/12:30am 9.6 4.3 2.9 63 2.9 SW 20 28 11 15 1023.2 - 0.0
22/12:15am 9.5 3.8 2.8 63 2.9 SW 22 30 12 16 1023.3 - 0.0
22/12:00am 9.4 4.0 2.7 63 2.9 SW 20 28 11 15 1023.4 - 0.0
 
Date/Time
EST
Temp
°C
App
Temp
°C
Dew
Point
°C
Rel
Hum
%
Delta-T
°C
Wind Press
QNH
hPa
Press
MSL
hPa
Rain since
9am
mm
Dir  Spd
km/h
Gust
km/h
Spd
kts
Gust
kts
21/11:45pm 9.4 4.0 2.6 62 2.9 SW 20 26 11 14 1023.6 - 0.0
21/11:30pm 9.2 3.8 2.6 63 2.8 SW 20 24 11 13 1023.6 - 0.0
21/11:15pm 8.6 3.7 2.3 64 2.7 SW 17 22 9 12 1023.7 - 0.0
21/11:00pm 8.3 4.5 1.8 63 2.7 SW 11 15 6 8 1023.7 - 0.0
21/10:45pm 9.1 5.0 2.0 61 3.0 SSW 13 17 7 9 1023.6 - 0.0
21/10:30pm 9.3 4.8 2.0 60 3.1 SSW 15 20 8 11 1023.5 - 0.0
21/10:15pm 9.2 4.3 2.1 61 3.0 SW 17 20 9 11 1023.5 - 0.0
21/10:00pm 8.6 3.7 2.0 63 2.8 SW 17 22 9 12 1023.5 - 0.0
21/09:45pm 8.5 4.7 1.8 63 2.8 SW 11 15 6 8 1023.4 - 0.0
21/09:30pm 9.5 4.6 1.8 58 3.2 SW 17 22 9 12 1023.3 - 0.0
21/09:15pm 9.7 4.2 1.8 58 3.3 SW 20 24 11 13 1023.1 - 0.0
21/09:00pm 9.9 4.0 1.9 57 3.4 SW 22 26 12 14 1023.0 - 0.0
21/08:45pm 10.0 4.1 1.9 57 3.4 SW 22 26 12 14 1022.9 - 0.0
21/08:30pm 10.0 3.8 2.0 57 3.4 SW 24 30 13 16 1022.8 - 0.0
21/08:15pm 10.1 4.2 2.0 57 3.4 SW 22 26 12 14 1022.7 - 0.0
21/08:00pm 9.8 4.5 2.0 58 3.3 SW 19 26 10 14 1022.7 - 0.0
21/07:45pm 9.7 4.8 1.9 58 3.3 SW 17 20 9 11 1022.5 - 0.0
21/07:30pm 9.8 4.9 1.7 57 3.4 SW 17 20 9 11 1022.4 - 0.0
21/07:15pm 10.1 5.5 1.6 55 3.6 SW 15 19 8 10 1022.2 - 0.0
21/07:00pm 10.6 6.4 1.4 53 3.9 WSW 13 17 7 9 1022.0 - 0.0
21/06:45pm 10.9 5.9 1.3 51 4.0 WSW 17 22 9 12 1021.8 - 0.0
21/06:30pm 11.7 6.1 1.2 48 4.4 WSW 20 28 11 15 1021.5 - 0.0
21/06:15pm 11.9 6.3 0.9 47 4.6 WSW 20 28 11 15 1021.2 - 0.0
21/06:00pm 12.0 6.5 0.5 45 4.8 WSW 19 26 10 14 1021.0 - 0.0
21/05:45pm 12.4 7.2 -0.1 42 5.2 WSW 17 22 9 12 1020.8 - 0.0
21/05:30pm 12.7 7.4 -0.3 40 5.4 WSW 17 22 9 12 1020.5 - 0.0
21/05:15pm 13.0 7.7 -0.5 39 5.6 SW 17 20 9 11 1020.2 - 0.0
21/05:00pm 13.6 7.9 -0.9 37 6.0 SW 19 26 10 14 1020.0 - 0.0
21/04:45pm 14.1 8.1 -1.3 34 6.3 SW 20 26 11 14 1019.7 - 0.0
21/04:30pm 14.6 8.6 -1.5 33 6.6 SW 20 30 11 16 1019.4 - 0.0
21/04:15pm 15.0 9.0 -1.7 31 6.8 WSW 20 33 11 18 1019.1 - 0.0
21/04:00pm 15.4 10.0 -1.4 31 7.0 WSW 17 26 9 14 1018.7 - 0.0
21/03:45pm 15.4 10.0 -1.1 32 6.9 SW 17 28 9 15 1018.5 - 0.0
21/03:30pm 15.7 10.0 -0.9 32 7.0 SW 19 30 10 16 1018.2 - 0.0
21/03:15pm 15.9 10.5 -1.2 31 7.1 SW 17 28 9 15 1018.0 - 0.0
21/03:00pm 16.1 10.2 -1.1 31 7.2 SW 20 35 11 19 1017.7 - 0.0
21/02:45pm 16.2 10.5 -1.1 30 7.3 WSW 19 30 10 16 1017.5 - 0.0
21/02:30pm 16.1 10.3 -1.2 30 7.2 SW 19 30 10 16 1017.3 - 0.0
21/02:15pm 16.1 10.4 -1.1 31 7.2 SW 19 28 10 15 1017.0 - 0.0
21/02:00pm 16.0 10.1 -1.1 31 7.2 WSW 20 30 11 16 1017.0 - 0.0
21/01:45pm 15.7 9.4 -0.9 32 7.0 WSW 22 35 12 19 1016.9 - 0.0
21/01:30pm 15.6 9.0 -0.7 33 6.9 SW 24 35 13 19 1016.8 - 0.0
21/01:15pm 15.3 8.6 -0.9 33 6.8 SW 24 35 13 19 1016.8 - 0.0
21/01:00pm 15.3 8.7 -0.6 33 6.7 SW 24 39 13 21 1016.8 - 0.0
21/12:45pm 15.1 8.5 -0.7 34 6.6 SW 24 37 13 20 1016.9 - 0.0
21/12:30pm 15.4 9.8 -0.2 34 6.6 SW 19 30 10 16 1016.9 - 0.0
21/12:15pm 15.0 8.4 -0.4 35 6.5 WSW 24 35 13 19 1016.8 - 0.0
21/12:00pm 14.7 6.9 -0.5 35 6.4 SW 30 43 16 23 1016.9 - 0.0
21/11:45am 14.5 6.2 -0.6 35 6.3 SW 33 46 18 25 1016.9 - 0.0
21/11:30am 14.6 8.4 0.0 37 6.2 SW 22 33 12 18 1017.2 - 0.0
21/11:15am 14.1 7.9 0.0 38 5.9 SW 22 41 12 22 1017.3 - 0.0
21/11:00am 14.0 7.5 0.1 38 5.9 SW 24 37 13 20 1017.2 - 0.0

Latest Capital City Observations: Canberra | Sydney | Melbourne | Brisbane | Adelaide | Perth | Hobart | Darwin

Other formats

Comma delimited format used in spreadsheet applications
http://www.bom.gov.au/fwo/IDN60901/IDN60901.95757.axf

JavaScript Object Notation format (JSON) in row-major order
http://www.bom.gov.au/fwo/IDN60901/IDN60901.95757.json

Data quality

Most of these data are generated automatically and are frequently updated. Quality checks on data are not normally performed. It is possible for incorrect values to appear. Refer to information at About Latest Weather Observations and please check the disclaimer before using these data.